Time;durP1;ratioP1;P1;durP2;ratioP2;P2;SDS_P1;SDS_P2;PMS_P1;PMS_P2;Temp;Humidity;BMP_temperature;BMP_pressure;BME280_temperature;BME280_humidity;BME280_pressure;Samples;Min_cycle;Max_cycle;Signal;HPM_P1;HPM_P2
2022/10/28 00:00:42;;;;;;;;;7.33;4.33;;;;;18.92;100.00;101402.03;5057212;28;62337;-75
2022/10/28 00:03:07;;;;;;;;;5.00;4.67;;;;;18.93;100.00;101406.47;5052878;28;61176;-75
2022/10/28 00:05:33;;;;;;;;;6.00;5.33;;;;;18.93;100.00;101394.88;5055653;28;60232;-75
2022/10/28 00:07:58;;;;;;;;;5.67;5.33;;;;;18.96;100.00;101401.09;5063784;28;45143;-75
2022/10/28 00:10:24;;;;;;;;;5.00;4.00;;;;;18.95;100.00;101407.31;5072928;28;66336;-75
2022/10/28 00:12:49;;;;;;;;;8.67;5.33;;;;;18.93;100.00;101394.88;5056938;28;58936;-76
2022/10/28 00:15:14;;;;;;;;;5.00;4.67;;;;;18.96;100.00;101405.53;5056762;28;67301;-75
2022/10/28 00:17:40;;;;;;;;;6.33;6.00;;;;;18.93;100.00;101397.56;5056901;28;45579;-75
2022/10/28 00:20:06;;;;;;;;;8.00;5.67;;;;;18.91;100.00;101392.25;5056263;28;64075;-75
2022/10/28 00:22:31;;;;;;;;;12.67;6.00;;;;;18.95;100.00;101409.13;5062145;28;45593;-76
2022/10/28 00:24:56;;;;;;;;;9.00;6.33;;;;;18.95;100.00;101409.13;5064929;28;65820;-75
2022/10/28 00:27:22;;;;;;;;;5.33;5.33;;;;;18.92;100.00;101401.16;5057093;28;45197;-76
2022/10/28 00:29:47;;;;;;;;;11.00;4.67;;;;;18.89;100.00;101409.22;5057165;28;45482;-76
2022/10/28 00:32:12;;;;;;;;;7.33;5.67;;;;;18.90;100.00;101419.00;5056439;28;60926;-76
2022/10/28 00:34:37;;;;;;;;;6.00;4.67;;;;;18.87;100.00;101416.38;5047845;28;71706;-75
2022/10/28 00:37:03;;;;;;;;;5.00;4.33;;;;;18.87;100.00;101416.38;5056107;28;65731;-75
2022/10/28 00:39:28;;;;;;;;;12.00;5.33;;;;;18.91;100.00;101418.09;5060205;28;63531;-75
2022/10/28 00:41:56;;;;;;;;;9.33;5.67;;;;;18.87;100.00;101414.59;5057033;28;45519;-75
2022/10/28 00:44:52;;;;;;;;;6.67;4.33;;;;;18.86;100.00;101410.16;5120270;27;45125;-75
2022/10/28 00:47:54;;;;;;;;;7.33;5.00;;;;;18.91;100.00;101410.06;5095559;27;45856;-76
2022/10/28 00:50:39;;;;;;;;;8.00;6.33;;;;;18.89;100.00;101407.41;5093047;27;45504;-76
2022/10/28 00:53:12;;;;;;;;;10.33;7.33;;;;;18.87;100.00;101405.69;5093414;27;45483;-76
2022/10/28 00:55:38;;;;;;;;;6.67;5.33;;;;;18.86;100.00;101403.91;5119115;27;47575;-75
2022/10/28 00:58:05;;;;;;;;;8.00;5.00;;;;;18.82;100.00;101395.91;5110557;27;64346;-75
2022/10/28 01:00:30;;;;;;;;;12.33;5.33;;;;;18.83;100.00;101403.03;5118643;27;45309;-76
2022/10/28 01:02:56;;;;;;;;;7.00;5.00;;;;;18.80;100.00;101400.41;5104097;27;61688;-76
2022/10/28 01:05:25;;;;;;;;;7.00;5.00;;;;;18.78;100.00;101398.66;5099907;27;46155;-74
2022/10/28 01:07:51;;;;;;;;;8.00;6.33;;;;;18.74;100.00;101394.25;5102661;27;45373;-76
2022/10/28 01:10:16;;;;;;;;;9.67;6.33;;;;;18.68;100.00;101395.22;5097560;27;45270;-76
2022/10/28 01:12:42;;;;;;;;;8.67;5.67;;;;;18.71;100.00;101399.66;5098570;27;47044;-75
2022/10/28 01:15:29;;;;;;;;;6.67;6.67;;;;;18.69;100.00;101396.09;5115177;27;46246;-75
2022/10/28 01:18:07;;;;;;;;;8.33;6.67;;;;;18.66;100.00;101406.81;5095836;27;45319;-75
2022/10/28 01:20:49;;;;;;;;;5.00;5.00;;;;;18.62;100.00;101407.75;5095539;27;45239;-75
2022/10/28 01:23:28;;;;;;;;;7.33;5.00;;;;;18.60;100.00;101405.13;5105034;27;45474;-75
2022/10/28 01:26:05;;;;;;;;;7.00;4.33;;;;;18.58;100.00;101404.22;5110261;27;46492;-75
2022/10/28 01:29:04;;;;;;;;;11.00;7.33;;;;;18.55;100.00;101409.63;5116823;27;45242;-75
2022/10/28 01:31:32;;;;;;;;;6.67;5.33;;;;;18.54;100.00;101394.50;5109901;27;45316;-75
2022/10/28 01:34:37;;;;;;;;;10.00;7.00;;;;;18.53;100.00;101398.94;5094621;27;45294;-76
2022/10/28 01:37:18;;;;;;;;;9.00;6.00;;;;;18.47;100.00;101382.97;5094613;27;47622;-75
2022/10/28 01:39:57;;;;;;;;;6.67;5.00;;;;;18.48;100.00;101387.44;5098982;27;45378;-76
2022/10/28 01:42:26;;;;;;;;;7.33;5.33;;;;;18.51;100.00;101394.53;5125234;27;45522;-75
2022/10/28 01:45:18;;;;;;;;;6.00;6.00;;;;;18.51;100.00;101397.19;5123230;27;45548;-76
2022/10/28 01:47:57;;;;;;;;;9.00;6.00;;;;;18.51;100.00;101394.53;5113056;27;46801;-75
2022/10/28 01:50:45;;;;;;;;;5.33;5.33;;;;;18.49;100.00;101385.66;5099672;27;45340;-75
2022/10/28 01:53:19;;;;;;;;;8.67;5.00;;;;;18.49;100.00;101382.97;5127337;27;45448;-75
2022/10/28 01:55:50;;;;;;;;;6.33;5.00;;;;;18.48;100.00;101381.19;5096365;27;45456;-76
2022/10/28 01:58:19;;;;;;;;;7.33;4.67;;;;;18.40;100.00;101369.72;5095940;27;47440;-75
2022/10/28 02:00:45;;;;;;;;;6.67;5.33;;;;;18.42;100.00;101390.16;5094998;27;45620;-75
2022/10/28 02:03:11;;;;;;;;;8.33;6.67;;;;;18.43;100.00;101388.38;5089874;27;45511;-76
2022/10/28 02:05:45;;;;;;;;;9.67;6.33;;;;;18.42;100.00;101389.28;5105580;27;63956;-76
2022/10/28 02:08:16;;;;;;;;;6.33;6.33;;;;;18.40;100.00;101385.75;5078584;27;47305;-75
2022/10/28 02:10:53;;;;;;;;;8.00;6.00;;;;;18.36;100.00;101374.19;5084471;27;45451;-76
2022/10/28 02:13:20;;;;;;;;;8.67;7.00;;;;;18.36;100.00;101381.34;5080404;27;45493;-75
2022/10/28 02:15:51;;;;;;;;;6.00;5.00;;;;;18.33;100.00;101368.91;5077335;27;58346;-75
2022/10/28 02:18:36;;;;;;;;;11.67;6.00;;;;;18.30;100.00;101371.59;5080608;27;47593;-75
2022/10/28 02:21:14;;;;;;;;;11.67;5.33;;;;;18.31;100.00;101373.38;5081250;27;45324;-75
2022/10/28 02:23:47;;;;;;;;;7.33;6.00;;;;;18.29;100.00;101377.88;5111332;27;45321;-75
2022/10/28 02:26:30;;;;;;;;;8.00;5.00;;;;;18.26;100.00;101381.44;5096267;27;45517;-75
2022/10/28 02:29:00;;;;;;;;;6.00;5.33;;;;;18.25;100.00;101362.75;5092254;27;46445;-75
2022/10/28 02:31:31;;;;;;;;;5.00;5.00;;;;;18.19;100.00;101363.72;5097219;27;45347;-75
2022/10/28 02:34:00;;;;;;;;;12.67;7.00;;;;;18.22;100.00;101368.16;5100170;27;45374;-75
2022/10/28 02:36:29;;;;;;;;;6.67;5.67;;;;;18.17;100.00;101362.88;5101894;27;45473;-75
2022/10/28 02:38:57;;;;;;;;;6.00;5.00;;;;;18.15;100.00;101361.09;5084001;27;46310;-75
2022/10/28 02:41:26;;;;;;;;;6.00;5.00;;;;;18.18;100.00;101363.75;5104406;27;45568;-75
2022/10/28 02:43:54;;;;;;;;;6.00;6.00;;;;;18.14;100.00;101357.53;5098455;27;45468;-75
2022/10/28 02:46:20;;;;;;;;;7.33;6.33;;;;;18.15;100.00;101361.97;5098379;27;45472;-75
2022/10/28 02:48:52;;;;;;;;;9.00;6.00;;;;;18.11;100.00;101365.63;5098490;27;47388;-75
2022/10/28 02:51:25;;;;;;;;;7.33;7.00;;;;;18.14;100.00;101365.56;5084783;27;45489;-75
2022/10/28 02:54:00;;;;;;;;;10.33;8.00;;;;;18.11;100.00;101357.59;5089520;27;45384;-75
2022/10/28 02:56:28;;;;;;;;;7.00;6.00;;;;;18.10;100.00;101360.25;5081192;27;45534;-75
2022/10/28 02:58:54;;;;;;;;;7.00;7.00;;;;;18.14;100.00;101364.69;5076690;27;47687;-75
2022/10/28 03:20:46;;;;;;;;;7.67;5.00;;;;;18.02;100.00;101344.34;5104174;27;74373;-75
2022/10/28 03:23:11;;;;;;;;;11.00;7.00;;;;;17.99;100.00;101339.88;5089614;27;45490;-75
2022/10/28 03:25:36;;;;;;;;;5.00;5.00;;;;;18.02;100.00;101342.53;5099030;27;45359;-75
2022/10/28 03:28:02;;;;;;;;;8.00;7.00;;;;;18.01;100.00;101337.22;5098926;27;46839;-75
2022/10/28 03:30:27;;;;;;;;;7.00;6.33;;;;;17.96;100.00;101325.69;5098428;27;45220;-75
2022/10/28 03:32:52;;;;;;;;;6.33;6.33;;;;;17.97;100.00;101331.03;5101278;27;61959;-75
2022/10/28 03:35:18;;;;;;;;;6.33;5.00;;;;;17.96;100.00;101333.72;5080698;27;55326;-75
2022/10/28 03:37:43;;;;;;;;;6.33;6.33;;;;;17.93;100.00;101331.06;5076085;27;67455;-75
2022/10/28 03:40:10;;;;;;;;;7.67;6.67;;;;;17.92;100.00;101331.97;5106636;27;64614;-75
2022/10/28 03:42:35;;;;;;;;;7.33;6.33;;;;;17.86;100.00;101327.59;5098018;27;45440;-75
2022/10/28 03:45:00;;;;;;;;;6.67;6.67;;;;;17.81;100.00;101313.41;5099004;27;45610;-75
2022/10/28 03:47:26;;;;;;;;;8.00;5.00;;;;;17.85;100.00;101320.47;5081506;27;46511;-75
2022/10/28 03:49:51;;;;;;;;;7.33;6.00;;;;;17.83;100.00;101324.94;5077330;27;45437;-75
2022/10/28 03:52:16;;;;;;;;;5.67;5.33;;;;;17.79;100.00;101320.56;5085745;27;60864;-75
2022/10/28 03:54:42;;;;;;;;;9.00;7.67;;;;;17.77;100.00;101317.00;5094108;27;56345;-76
2022/10/28 03:57:07;;;;;;;;;7.00;6.00;;;;;17.79;100.00;101317.88;5076839;27;46283;-75
2022/10/28 03:59:32;;;;;;;;;7.00;4.67;;;;;17.76;100.00;101308.09;5080049;27;67177;-75
2022/10/28 04:01:58;;;;;;;;;9.00;8.00;;;;;17.75;100.00;101306.34;5108151;27;62163;-75
2022/10/28 04:04:23;;;;;;;;;7.00;6.00;;;;;17.74;100.00;101309.91;5092051;27;56625;-75
2022/10/28 04:06:48;;;;;;;;;9.67;8.67;;;;;17.70;100.00;101309.94;5102679;27;46502;-75
2022/10/28 04:09:14;;;;;;;;;9.67;5.00;;;;;17.72;100.00;101308.09;5076092;27;65626;-75
2022/10/28 04:11:39;;;;;;;;;7.33;5.00;;;;;17.66;100.00;101298.38;5079404;27;56525;-75
2022/10/28 04:14:04;;;;;;;;;10.67;9.00;;;;;17.68;100.00;101309.91;5076030;27;61816;-75
2022/10/28 04:16:30;;;;;;;;;8.33;7.00;;;;;17.65;100.00;101311.75;5075861;27;66416;-75
2022/10/28 04:18:55;;;;;;;;;9.00;6.00;;;;;17.63;100.00;101317.13;5092319;27;67487;-75
2022/10/28 04:21:20;;;;;;;;;6.33;6.33;;;;;17.67;100.00;101325.97;5081352;27;45507;-75
2022/10/28 04:23:46;;;;;;;;;7.00;5.33;;;;;17.63;100.00;101310.88;5081916;27;45310;-76
2022/10/28 04:26:11;;;;;;;;;7.00;6.00;;;;;17.64;100.00;101310.88;5082725;27;70636;-75
2022/10/28 04:28:36;;;;;;;;;10.67;5.00;;;;;17.64;100.00;101318.88;5100187;27;45492;-75
2022/10/28 04:31:02;;;;;;;;;7.33;6.00;;;;;17.65;100.00;101328.66;5096583;27;60173;-75
2022/10/28 04:33:27;;;;;;;;;6.00;4.67;;;;;17.63;100.00;101318.88;5076498;27;45591;-75
2022/10/28 04:35:53;;;;;;;;;5.33;5.33;;;;;17.67;100.00;101316.16;5098028;27;47440;-75
2022/10/28 04:38:18;;;;;;;;;8.00;5.00;;;;;17.69;100.00;101311.72;5082004;27;57637;-76
2022/10/28 04:40:46;;;;;;;;;6.00;6.00;;;;;17.68;100.00;101309.91;5082704;27;46395;-75
2022/10/28 04:43:12;;;;;;;;;7.00;5.33;;;;;17.69;100.00;101308.16;5079807;27;45564;-76
2022/10/28 04:45:38;;;;;;;;;6.67;5.00;;;;;17.75;100.00;101308.13;5075531;27;68247;-77
2022/10/28 04:48:03;;;;;;;;;7.33;6.00;;;;;17.73;100.00;101299.22;5077415;27;45373;-75
2022/10/28 04:50:29;;;;;;;;;7.00;4.00;;;;;17.74;100.00;101303.69;5096000;27;45502;-75
2022/10/28 04:52:54;;;;;;;;;6.67;5.67;;;;;17.79;100.00;101308.06;5102193;27;45297;-75
2022/10/28 04:55:20;;;;;;;;;6.00;6.00;;;;;17.82;100.00;101308.94;5089222;27;65907;-73
2022/10/28 04:57:55;;;;;;;;;6.33;5.00;;;;;17.84;100.00;101313.34;5093249;27;45278;-73
2022/10/28 05:00:22;;;;;;;;;7.00;5.00;;;;;17.81;100.00;101302.72;5092031;27;45467;-76
2022/10/28 05:02:47;;;;;;;;;7.67;4.00;;;;;17.84;100.00;101308.00;5100033;27;46174;-75
2022/10/28 05:05:13;;;;;;;;;6.00;6.00;;;;;17.80;100.00;101299.16;5084153;27;47346;-75
2022/10/28 05:07:38;;;;;;;;;3.33;3.33;;;;;17.83;100.00;101300.00;5084246;27;45471;-75
2022/10/28 05:10:04;;;;;;;;;7.00;5.67;;;;;17.88;100.00;101296.38;5076166;27;45370;-75
2022/10/28 05:12:29;;;;;;;;;5.00;5.00;;;;;17.90;100.00;101294.59;5076088;27;45339;-75
2022/10/28 05:14:55;;;;;;;;;12.00;6.00;;;;;17.92;100.00;101310.59;5087382;27;47250;-75
2022/10/28 05:17:20;;;;;;;;;9.33;7.00;;;;;17.93;100.00;101302.56;5092306;27;45185;-75
2022/10/28 05:19:45;;;;;;;;;7.00;5.67;;;;;17.96;100.00;101307.00;5088665;27;60312;-75
2022/10/28 05:22:11;;;;;;;;;9.67;6.00;;;;;17.99;100.00;101306.94;5075266;27;62580;-75
2022/10/28 05:24:36;;;;;;;;;6.67;5.00;;;;;18.00;100.00;101309.63;5085748;27;71527;-75
2022/10/28 05:27:01;;;;;;;;;10.33;6.00;;;;;17.99;100.00;101306.94;5087380;27;55321;-76
2022/10/28 05:29:27;;;;;;;;;8.67;6.00;;;;;18.01;100.00;101300.69;5099671;27;63239;-76
2022/10/28 05:31:52;;;;;;;;;9.33;5.00;;;;;18.04;100.00;101299.75;5090142;27;57564;-76
2022/10/28 05:34:17;;;;;;;;;5.00;5.00;;;;;18.04;100.00;101303.31;5087895;27;70130;-76
2022/10/28 05:36:42;;;;;;;;;5.67;5.67;;;;;18.09;100.00;101308.59;5078100;27;66845;-75
2022/10/28 05:39:08;;;;;;;;;9.67;6.00;;;;;18.09;100.00;101318.41;5086343;27;64913;-75
2022/10/28 05:41:33;;;;;;;;;5.00;4.00;;;;;18.08;100.00;101317.53;5096676;27;52703;-75
2022/10/28 05:43:58;;;;;;;;;6.33;5.33;;;;;18.03;100.00;101308.69;5095066;27;65209;-76
2022/10/28 05:46:24;;;;;;;;;10.67;6.00;;;;;18.04;100.00;101297.97;5090795;27;66302;-75
2022/10/28 05:48:49;;;;;;;;;3.00;2.00;;;;;18.03;100.00;101298.88;5085603;27;45441;-75
2022/10/28 05:51:14;;;;;;;;;11.67;6.00;;;;;18.02;100.00;101294.44;5079224;27;45318;-75
2022/10/28 05:53:41;;;;;;;;;3.67;3.67;;;;;18.06;100.00;101320.22;5094365;27;46527;-75
2022/10/28 05:56:07;;;;;;;;;11.67;6.00;;;;;18.08;100.00;101320.22;5084638;27;45316;-75
2022/10/28 05:58:33;;;;;;;;;6.67;5.00;;;;;18.09;100.00;101303.25;5090754;27;45208;-75
2022/10/28 06:00:58;;;;;;;;;7.00;6.00;;;;;18.04;100.00;101305.97;5099895;27;45460;-74
2022/10/28 06:03:23;;;;;;;;;6.67;5.67;;;;;18.04;100.00;101308.66;5092634;27;69510;-75
2022/10/28 06:05:49;;;;;;;;;6.00;6.00;;;;;18.09;100.00;101324.63;5081418;27;68791;-75
2022/10/28 06:08:14;;;;;;;;;10.33;6.00;;;;;18.11;100.00;101321.94;5081789;27;61229;-73
2022/10/28 06:10:40;;;;;;;;;6.00;5.00;;;;;18.11;100.00;101324.63;5093809;27;46461;-76
2022/10/28 06:13:07;;;;;;;;;11.00;6.33;;;;;18.08;100.00;101324.66;5092739;27;46737;-75
2022/10/28 06:15:33;;;;;;;;;10.00;5.67;;;;;18.05;100.00;101323.78;5099708;27;45515;-76
2022/10/28 06:17:58;;;;;;;;;7.33;5.00;;;;;18.03;100.00;101316.69;5100272;27;45471;-78
2022/10/28 06:20:23;;;;;;;;;5.33;5.00;;;;;18.04;100.00;101321.13;5092845;27;53057;-76
2022/10/28 06:22:51;;;;;;;;;9.00;6.00;;;;;18.06;100.00;101320.22;5094966;27;66891;-76
2022/10/28 06:25:17;;;;;;;;;6.00;5.00;;;;;18.08;100.00;101320.22;5105868;27;46796;-76
2022/10/28 06:27:42;;;;;;;;;6.00;6.00;;;;;18.09;100.00;101334.44;5077932;27;45540;-77
2022/10/28 06:30:08;;;;;;;;;6.33;4.00;;;;;18.08;100.00;101336.25;5095771;27;50620;-76
2022/10/28 06:32:33;;;;;;;;;6.67;6.00;;;;;18.08;100.00;101340.69;5092685;27;47583;-75
2022/10/28 06:34:58;;;;;;;;;4.33;4.33;;;;;18.08;100.00;101346.94;5103101;27;45495;-76
2022/10/28 06:37:24;;;;;;;;;5.67;4.00;;;;;18.05;100.00;101328.25;5112592;27;46340;-75
2022/10/28 06:39:51;;;;;;;;;4.33;4.33;;;;;18.05;100.00;101341.59;5109945;27;50469;-76
2022/10/28 06:42:17;;;;;;;;;7.00;4.67;;;;;18.07;100.00;101350.50;5110000;27;47678;-75
2022/10/28 06:44:42;;;;;;;;;8.00;5.00;;;;;18.04;100.00;101338.06;5096232;27;45461;-76
2022/10/28 06:47:07;;;;;;;;;11.67;7.00;;;;;18.10;100.00;101354.91;5111065;27;45468;-76
2022/10/28 06:49:33;;;;;;;;;7.33;5.00;;;;;18.12;100.00;101361.16;5094616;27;63431;-76
2022/10/28 06:51:58;;;;;;;;;6.33;6.00;;;;;18.11;100.00;101352.25;5093931;27;60138;-76
2022/10/28 06:54:23;;;;;;;;;7.00;5.00;;;;;18.11;100.00;101362.03;5108349;27;69218;-75
2022/10/28 06:56:49;;;;;;;;;8.33;5.00;;;;;18.11;100.00;101360.28;5082427;27;45397;-75
2022/10/28 06:59:14;;;;;;;;;8.67;6.00;;;;;18.15;100.00;101377.13;5104329;27;45540;-76
2022/10/28 07:01:39;;;;;;;;;6.33;5.00;;;;;18.13;100.00;101379.84;5110104;27;50822;-77
2022/10/28 07:04:05;;;;;;;;;8.00;5.33;;;;;18.12;100.00;101382.53;5113749;27;56949;-76
2022/10/28 07:06:31;;;;;;;;;9.00;6.00;;;;;18.15;100.00;101383.34;5099768;27;45270;-75
2022/10/28 07:08:56;;;;;;;;;9.00;6.00;;;;;18.13;100.00;101389.66;5097943;27;57938;-76
2022/10/28 07:11:21;;;;;;;;;7.33;6.00;;;;;18.16;100.00;101393.16;5095296;27;51606;-75
2022/10/28 07:13:46;;;;;;;;;6.00;6.00;;;;;18.24;100.00;101401.09;5089336;27;62845;-76
2022/10/28 07:16:12;;;;;;;;;7.00;5.33;;;;;18.27;100.00;101393.06;5099550;27;59888;-76
2022/10/28 07:18:37;;;;;;;;;9.33;6.67;;;;;18.24;100.00;101391.28;5109747;27;63739;-76
2022/10/28 07:21:03;;;;;;;;;8.33;6.00;;;;;18.32;100.00;101408.13;5109169;27;68993;-76
2022/10/28 07:23:31;;;;;;;;;7.00;5.33;;;;;18.39;100.00;101413.41;5092632;27;45363;-76
2022/10/28 07:25:57;;;;;;;;;7.67;6.00;;;;;18.42;100.00;101405.31;5115098;27;45470;-76
2022/10/28 07:28:23;;;;;;;;;8.33;7.00;;;;;18.51;100.00;101423.94;5108314;27;45540;-76
2022/10/28 07:30:48;;;;;;;;;5.67;4.67;;;;;18.54;100.00;101397.19;5115346;27;47550;-77
2022/10/28 07:33:14;;;;;;;;;4.67;4.67;;;;;18.62;100.00;101430.03;5099108;27;53179;-75
2022/10/28 07:35:40;;;;;;;;;11.00;5.33;;;;;18.64;100.00;101409.50;5099557;27;45283;-75
2022/10/28 07:38:05;;;;;;;;;4.00;4.00;;;;;18.73;100.00;101424.59;5090138;27;45270;-75
2022/10/28 07:40:30;;;;;;;;;7.33;6.00;;;;;18.80;100.00;101434.28;5117646;27;56668;-76
2022/10/28 07:42:57;;;;;;;;;6.33;3.67;;;;;18.88;100.00;101416.34;5100188;27;65777;-76
2022/10/28 07:45:23;;;;;;;;;6.33;4.33;;;;;18.89;100.00;101420.78;5089518;27;45256;-76
2022/10/28 07:47:48;;;;;;;;;5.00;5.00;;;;;19.01;100.00;101420.59;5104958;27;45209;-76
2022/10/28 07:50:14;;;;;;;;;6.67;5.00;;;;;19.10;100.00;101423.16;5099559;27;65817;-75
2022/10/28 07:52:39;;;;;;;;;6.67;5.33;;;;;19.13;100.00;101430.28;5099700;27;62589;-76
2022/10/28 07:55:06;;;;;;;;;5.67;5.67;;;;;19.24;100.00;101425.66;5084383;27;63023;-76
2022/10/28 07:57:33;;;;;;;;;5.33;4.33;;;;;19.31;100.00;101423.75;5102676;27;45200;-75
2022/10/28 07:59:58;;;;;;;;;9.00;6.00;;;;;19.34;100.00;101416.56;5104365;27;46329;-76
2022/10/28 08:02:24;;;;;;;;;4.67;3.00;;;;;19.46;100.00;101428.00;5091567;27;65443;-76
2022/10/28 08:04:50;;;;;;;;;6.00;5.00;;;;;19.58;100.00;101438.50;5089041;27;45544;-75
2022/10/28 08:07:16;;;;;;;;;6.00;4.00;;;;;19.64;100.00;101443.78;5094169;27;45427;-75
2022/10/28 08:09:41;;;;;;;;;10.67;3.67;;;;;19.70;100.00;101442.78;5100528;27;46857;-76
2022/10/28 08:12:08;;;;;;;;;5.67;4.00;;;;;19.73;100.00;101461.50;5115232;27;49078;-75
2022/10/28 08:14:34;;;;;;;;;10.67;6.00;;;;;19.75;100.00;101465.91;5116071;27;45405;-76
2022/10/28 08:16:59;;;;;;;;;5.67;4.33;;;;;19.74;100.00;101453.44;5100517;27;45958;-75
2022/10/28 08:19:25;;;;;;;;;5.00;4.33;;;;;19.81;100.00;101457.75;5082737;27;46826;-75
2022/10/28 08:21:50;;;;;;;;;6.00;3.00;;;;;19.85;100.00;101458.59;5104657;27;45464;-75
2022/10/28 08:24:15;;;;;;;;;4.33;4.00;;;;;19.89;100.00;101461.22;5116879;27;61681;-75
2022/10/28 08:26:41;;;;;;;;;6.67;5.67;;;;;19.95;100.00;101470.94;5103676;27;62577;-76
2022/10/28 08:29:07;;;;;;;;;7.00;3.33;;;;;19.94;100.00;101462.94;5115305;27;67819;-75
2022/10/28 08:31:32;;;;;;;;;5.00;3.00;;;;;19.94;100.00;101454.91;5133305;27;45527;-77
2022/10/28 08:33:58;;;;;;;;;6.33;4.00;;;;;20.02;100.00;101466.34;5108404;27;47142;-78
2022/10/28 08:36:23;;;;;;;;;8.67;6.00;;;;;20.02;100.00;101469.91;5115775;27;60415;-78
2022/10/28 08:38:49;;;;;;;;;5.33;3.67;;;;;20.02;100.00;101472.59;5103697;27;45735;-77
2022/10/28 08:41:23;;;;;;;;;10.67;7.00;;;;;20.02;100.00;101474.38;5116793;27;54835;-79
2022/10/28 08:43:55;;;;;;;;;9.33;6.00;;;;;20.04;100.00;101477.94;5115912;27;45555;-77
2022/10/28 08:46:51;;;;;;;;;7.00;4.00;;;;;20.04;100.00;101491.34;5099887;27;45172;-76
2022/10/28 08:49:19;;;;;;;;;6.33;5.00;;;;;20.01;100.00;101504.78;5079485;27;47542;-76
2022/10/28 08:51:47;;;;;;;;;10.00;5.33;;;;;20.03;100.00;101500.31;5114088;27;45341;-76
2022/10/28 08:54:40;;;;;;;;;6.33;4.00;;;;;20.10;100.00;101510.00;5099639;27;45253;-76
2022/10/28 08:57:21;;;;;;;;;5.67;4.67;;;;;20.14;100.00;101517.09;5093485;27;45575;-77
2022/10/28 08:59:50;;;;;;;;;11.33;8.33;;;;;20.19;100.00;101520.56;5177172;22;48062;-76
2022/10/28 09:02:22;;;;;;;;;5.00;5.00;;;;;20.23;100.00;101529.44;5045393;28;45577;-75
2022/10/28 09:04:55;;;;;;;;;6.00;3.00;;;;;20.23;100.00;101524.94;5047993;28;45416;-77
2022/10/28 09:07:21;;;;;;;;;5.00;3.00;;;;;20.30;100.00;101541.84;5057412;28;45677;-76
2022/10/28 09:09:48;;;;;;;;;4.00;4.00;;;;;20.32;100.00;101521.22;5059098;28;46856;-76
2022/10/28 09:12:49;;;;;;;;;4.00;3.00;;;;;20.38;100.00;101532.72;5057858;28;45351;-76
2022/10/28 09:15:25;;;;;;;;;6.00;4.67;;;;;20.40;100.00;101528.25;4995926;28;45494;-76
2022/10/28 09:17:56;;;;;;;;;6.00;5.00;;;;;20.44;100.00;101530.84;5050923;28;46440;-76
2022/10/28 09:20:31;;;;;;;;;7.00;4.67;;;;;20.45;100.00;101535.28;5057557;28;46377;-76
2022/10/28 09:23:18;;;;;;;;;6.33;5.00;;;;;20.47;100.00;101520.97;5057369;28;45628;-76
2022/10/28 09:26:06;;;;;;;;;4.33;4.00;;;;;20.50;100.00;101538.81;5058987;28;45596;-76
2022/10/28 09:28:49;;;;;;;;;8.67;5.00;;;;;20.52;100.00;101542.38;5053712;28;45471;-76
2022/10/28 09:31:20;;;;;;;;;22.00;16.33;;;;;20.53;100.00;101541.44;5053692;28;45823;-76
2022/10/28 09:34:10;;;;;;;;;7.67;7.67;;;;;20.52;100.00;101543.25;5051978;28;45609;-75
2022/10/28 09:36:40;;;;;;;;;9.00;6.33;;;;;20.58;100.00;101545.81;5057861;28;46282;-76
2022/10/28 09:39:08;;;;;;;;;5.00;5.00;;;;;20.59;100.00;101544.88;5057575;28;45605;-76
2022/10/28 09:41:37;;;;;;;;;7.67;5.00;;;;;20.62;100.00;101549.34;5058129;28;46763;-76
2022/10/28 09:44:14;;;;;;;;;5.00;5.00;;;;;20.70;100.00;101554.53;5054107;28;45268;-75
2022/10/28 09:46:39;;;;;;;;;5.67;5.67;;;;;20.71;100.00;101542.88;5057732;28;45703;-77
2022/10/28 09:49:11;;;;;;;;;8.00;5.00;;;;;20.77;100.00;101551.69;5055679;28;45418;-76
2022/10/28 09:51:46;;;;;;;;;7.00;6.67;;;;;20.83;100.00;101556.97;5057509;28;46350;-76
2022/10/28 09:54:12;;;;;;;;;6.33;6.00;;;;;20.84;100.00;101544.41;5056662;28;45510;-76
2022/10/28 09:56:38;;;;;;;;;7.00;5.33;;;;;20.89;100.00;101546.09;5057399;28;45411;-76
2022/10/28 09:59:04;;;;;;;;;8.67;4.67;;;;;20.96;100.00;101551.34;5056809;28;55899;-76
2022/10/28 10:01:32;;;;;;;;;5.00;5.00;;;;;21.01;100.00;101552.13;5051501;28;46566;-76
2022/10/28 10:03:57;;;;;;;;;6.00;5.00;;;;;21.02;100.00;101552.09;5066129;28;46097;-76
2022/10/28 10:06:28;;;;;;;;;6.00;4.00;;;;;21.04;100.00;101573.53;5058025;28;45462;-76
2022/10/28 10:08:56;;;;;;;;;10.33;5.33;;;;;21.06;100.00;101579.78;5053410;28;45283;-77
2022/10/28 10:11:29;;;;;;;;;6.00;5.00;;;;;21.07;100.00;101579.72;5045421;28;45401;-75
2022/10/28 10:13:57;;;;;;;;;4.33;4.33;;;;;21.07;100.00;101574.34;5051323;28;45508;-76
2022/10/28 10:16:37;;;;;;;;;5.00;5.00;;;;;21.08;100.00;101580.63;5055657;28;45359;-77
2022/10/28 10:19:04;;;;;;;;;7.33;5.67;;;;;21.04;100.00;101581.59;5056932;28;45399;-76
2022/10/28 10:21:51;;;;;;;;;6.67;5.67;;;;;21.04;100.00;101578.91;5053626;28;45775;-76
2022/10/28 10:24:22;;;;;;;;;6.00;6.00;;;;;21.09;100.00;101590.44;5056814;28;45543;-77
2022/10/28 10:26:48;;;;;;;;;8.00;4.67;;;;;21.10;100.00;101595.78;5052850;28;45427;-77
2022/10/28 10:29:13;;;;;;;;;6.33;5.00;;;;;21.11;100.00;101594.88;5045525;28;45478;-76
2022/10/28 10:31:39;;;;;;;;;9.00;6.33;;;;;21.16;100.00;101594.78;5057375;28;66176;-76
2022/10/28 10:34:04;;;;;;;;;6.67;5.33;;;;;21.13;100.00;101584.97;5048154;28;70025;-76
2022/10/28 10:36:30;;;;;;;;;7.67;5.00;;;;;21.18;100.00;101585.75;5052797;28;56220;-77
2022/10/28 10:38:57;;;;;;;;;7.67;6.00;;;;;21.21;100.00;101584.81;5050511;28;45489;-77
2022/10/28 10:41:46;;;;;;;;;10.00;4.00;;;;;21.27;100.00;101583.81;5052015;28;45879;-76
2022/10/28 10:44:20;;;;;;;;;7.33;6.33;;;;;21.33;100.00;101587.28;5046772;28;45615;-76
2022/10/28 10:47:06;;;;;;;;;7.67;6.00;;;;;21.36;100.00;101594.38;5049243;28;45474;-76
2022/10/28 10:49:31;;;;;;;;;14.00;11.00;;;;;21.37;100.00;101589.00;5047434;28;45534;-75
2022/10/28 10:52:18;;;;;;;;;7.67;5.00;;;;;21.40;100.00;101601.47;5053824;28;45547;-76
2022/10/28 10:55:06;;;;;;;;;7.00;7.00;;;;;21.49;100.00;101609.31;5053249;28;45461;-77
2022/10/28 10:57:32;;;;;;;;;7.00;5.33;;;;;21.50;100.00;101610.22;5051100;28;45193;-75
2022/10/28 10:59:58;;;;;;;;;6.00;6.00;;;;;21.53;100.00;101607.47;5051362;28;45418;-76
2022/10/28 11:02:28;;;;;;;;;6.00;6.00;;;;;21.61;100.00;101624.28;5055581;28;45731;-76
2022/10/28 11:05:01;;;;;;;;;6.33;5.33;;;;;21.64;100.00;101610.81;5056220;28;45174;-76
2022/10/28 11:07:27;;;;;;;;;7.67;5.33;;;;;21.65;100.00;101612.56;5048721;28;45334;-75
2022/10/28 11:09:52;;;;;;;;;5.00;5.00;;;;;21.71;100.00;101625.84;5057336;28;45439;-76
2022/10/28 11:12:26;;;;;;;;;6.33;6.00;;;;;21.75;100.00;101626.69;5054991;28;48061;-75
2022/10/28 11:14:59;;;;;;;;;6.67;5.00;;;;;21.80;100.00;101641.78;5051115;28;45409;-75
2022/10/28 11:17:30;;;;;;;;;9.00;5.67;;;;;21.85;100.00;101644.38;5056993;28;45385;-76
2022/10/28 11:19:58;;;;;;;;;7.00;5.00;;;;;21.89;100.00;101656.81;5056988;28;45534;-75
2022/10/28 11:22:45;;;;;;;;;6.67;3.00;;;;;21.91;100.00;101661.25;5055531;28;45708;-75
2022/10/28 11:25:34;;;;;;;;;6.67;5.33;;;;;21.93;100.00;101650.44;5051218;28;45520;-75
2022/10/28 11:28:06;;;;;;;;;10.33;5.33;;;;;21.95;100.00;101656.69;5046444;28;45572;-76
2022/10/28 11:30:37;;;;;;;;;11.00;5.67;;;;;21.93;100.00;101645.06;5051936;28;45554;-75
2022/10/28 11:33:15;;;;;;;;;9.67;8.00;;;;;21.96;100.00;101648.59;5056319;28;45342;-76
2022/10/28 11:36:03;;;;;;;;;9.33;8.33;;;;;21.93;100.00;101637.00;5055557;28;45557;-76
2022/10/28 11:39:01;;;;;;;;;9.67;7.00;;;;;21.98;100.00;101641.34;5056186;28;45330;-75
2022/10/28 11:41:33;;;;;;;;;7.00;7.00;;;;;22.03;100.00;101653.81;5053901;28;45524;-76
2022/10/28 11:43:58;;;;;;;;;16.33;10.33;;;;;22.01;100.00;101653.84;5056533;28;45375;-75
2022/10/28 11:46:47;;;;;;;;;8.00;6.33;;;;;22.04;100.00;101651.06;5051730;28;67476;-75